Terminal Aerodrome Forecast
Issued by NWS

Home | Current Version | Previous Version | Text Only | Print | Product List | Glossary On
Versions: 1 2 3 4 5 6 7 8 9 10 11 12 13 14 15
945
FTUS41 KBGM 241134
TAFELM
TAF
KELM 241134Z 2412/2512 23007KT P6SM SCT050
     FM241600 22010G18KT P6SM SCT250
     FM242300 22005KT P6SM BKN250
     FM251100 22005KT P6SM OVC100=

USA.gov is the U.S. government's official web portal to all federal, state and local government web resources and services.